sensor_id;sensor_type;location;lat;lon;timestamp;temperature;humidity
33594;DHT22;19920;52.242;20.940;2024-02-26T00:01:40;7.10;99.90
33594;DHT22;19920;52.242;20.940;2024-02-26T00:04:06;7.10;99.90
33594;DHT22;19920;52.242;20.940;2024-02-26T00:06:32;7.10;99.90
33594;DHT22;19920;52.242;20.940;2024-02-26T00:08:58;7.00;99.90
33594;DHT22;19920;52.242;20.940;2024-02-26T00:11:24;7.00;99.90
33594;DHT22;19920;52.242;20.940;2024-02-26T00:13:49;7.00;99.90
33594;DHT22;19920;52.242;20.940;2024-02-26T00:16:15;6.90;99.90
33594;DHT22;19920;52.242;20.940;2024-02-26T00:18:40;6.80;99.90
33594;DHT22;19920;52.242;20.940;2024-02-26T00:21:06;6.80;99.90
33594;DHT22;19920;52.242;20.940;2024-02-26T00:23:32;6.70;99.90
33594;DHT22;19920;52.242;20.940;2024-02-26T00:25:57;6.70;99.90
33594;DHT22;19920;52.242;20.940;2024-02-26T00:28:23;6.60;99.90
33594;DHT22;19920;52.242;20.940;2024-02-26T00:30:50;6.50;99.90
33594;DHT22;19920;52.242;20.940;2024-02-26T00:33:21;6.50;99.90
33594;DHT22;19920;52.242;20.940;2024-02-26T00:35:46;6.40;99.90
33594;DHT22;19920;52.242;20.940;2024-02-26T00:38:12;6.40;99.90
33594;DHT22;19920;52.242;20.940;2024-02-26T00:40:37;6.30;99.90
33594;DHT22;19920;52.242;20.940;2024-02-26T00:43:03;6.30;99.90
33594;DHT22;19920;52.242;20.940;2024-02-26T00:45:29;6.40;99.90
33594;DHT22;19920;52.242;20.940;2024-02-26T00:47:55;6.50;99.90
33594;DHT22;19920;52.242;20.940;2024-02-26T00:50:21;6.50;99.90
33594;DHT22;19920;52.242;20.940;2024-02-26T00:52:46;6.60;99.90
33594;DHT22;19920;52.242;20.940;2024-02-26T00:55:12;6.60;99.90
33594;DHT22;19920;52.242;20.940;2024-02-26T00:57:38;6.60;99.90
33594;DHT22;19920;52.242;20.940;2024-02-26T01:00:04;6.70;99.90
33594;DHT22;19920;52.242;20.940;2024-02-26T01:02:29;6.70;99.90
33594;DHT22;19920;52.242;20.940;2024-02-26T01:04:55;6.70;99.90
33594;DHT22;19920;52.242;20.940;2024-02-26T01:07:21;6.70;99.90
33594;DHT22;19920;52.242;20.940;2024-02-26T01:09:46;6.70;99.90
33594;DHT22;19920;52.242;20.940;2024-02-26T01:12:12;6.70;99.90
33594;DHT22;19920;52.242;20.940;2024-02-26T01:14:37;6.70;99.90
33594;DHT22;19920;52.242;20.940;2024-02-26T01:17:03;6.70;99.90
33594;DHT22;19920;52.242;20.940;2024-02-26T01:19:29;6.60;99.90
33594;DHT22;19920;52.242;20.940;2024-02-26T01:21:54;6.70;99.90
33594;DHT22;19920;52.242;20.940;2024-02-26T01:24:20;6.70;99.90
33594;DHT22;19920;52.242;20.940;2024-02-26T01:26:46;6.70;99.90
33594;DHT22;19920;52.242;20.940;2024-02-26T01:29:11;6.70;99.90
33594;DHT22;19920;52.242;20.940;2024-02-26T01:31:37;6.80;99.90
33594;DHT22;19920;52.242;20.940;2024-02-26T01:34:02;6.70;99.90
33594;DHT22;19920;52.242;20.940;2024-02-26T01:36:28;6.70;99.90
33594;DHT22;19920;52.242;20.940;2024-02-26T01:38:54;6.70;99.90
33594;DHT22;19920;52.242;20.940;2024-02-26T01:41:19;6.60;99.90
33594;DHT22;19920;52.242;20.940;2024-02-26T01:43:45;6.60;99.90
33594;DHT22;19920;52.242;20.940;2024-02-26T01:46:13;6.70;99.90
33594;DHT22;19920;52.242;20.940;2024-02-26T01:48:41;6.70;99.90
33594;DHT22;19920;52.242;20.940;2024-02-26T01:51:07;6.70;99.90
33594;DHT22;19920;52.242;20.940;2024-02-26T01:53:33;6.60;99.90
33594;DHT22;19920;52.242;20.940;2024-02-26T01:56:00;6.70;99.90
33594;DHT22;19920;52.242;20.940;2024-02-26T01:58:25;6.60;99.90
33594;DHT22;19920;52.242;20.940;2024-02-26T02:00:51;6.60;99.90
33594;DHT22;19920;52.242;20.940;2024-02-26T02:03:17;6.60;99.90
33594;DHT22;19920;52.242;20.940;2024-02-26T02:05:43;6.60;99.90
33594;DHT22;19920;52.242;20.940;2024-02-26T02:08:10;6.60;99.90
33594;DHT22;19920;52.242;20.940;2024-02-26T02:10:38;6.50;99.90
33594;DHT22;19920;52.242;20.940;2024-02-26T02:13:04;6.50;99.90
33594;DHT22;19920;52.242;20.940;2024-02-26T02:15:29;6.50;99.90
33594;DHT22;19920;52.242;20.940;2024-02-26T02:17:55;6.50;99.90
33594;DHT22;19920;52.242;20.940;2024-02-26T02:20:34;6.50;99.90
33594;DHT22;19920;52.242;20.940;2024-02-26T02:23:01;6.50;99.90
33594;DHT22;19920;52.242;20.940;2024-02-26T02:25:26;6.40;99.90
33594;DHT22;19920;52.242;20.940;2024-02-26T02:27:54;6.40;99.90
33594;DHT22;19920;52.242;20.940;2024-02-26T02:30:21;6.40;99.90
33594;DHT22;19920;52.242;20.940;2024-02-26T02:32:48;6.40;99.90
33594;DHT22;19920;52.242;20.940;2024-02-26T02:35:14;6.30;99.90
33594;DHT22;19920;52.242;20.940;2024-02-26T02:37:40;6.30;99.90
33594;DHT22;19920;52.242;20.940;2024-02-26T02:40:06;6.30;99.90
33594;DHT22;19920;52.242;20.940;2024-02-26T02:42:32;6.30;99.90
33594;DHT22;19920;52.242;20.940;2024-02-26T02:44:57;6.30;99.90
33594;DHT22;19920;52.242;20.940;2024-02-26T02:47:23;6.20;99.90
33594;DHT22;19920;52.242;20.940;2024-02-26T02:49:49;6.10;99.90
33594;DHT22;19920;52.242;20.940;2024-02-26T02:52:14;6.00;99.90
33594;DHT22;19920;52.242;20.940;2024-02-26T02:54:40;6.00;99.90
33594;DHT22;19920;52.242;20.940;2024-02-26T02:57:07;6.00;99.90
33594;DHT22;19920;52.242;20.940;2024-02-26T02:59:33;6.00;99.90
33594;DHT22;19920;52.242;20.940;2024-02-26T03:01:59;6.00;99.90
33594;DHT22;19920;52.242;20.940;2024-02-26T03:04:24;6.00;99.90
33594;DHT22;19920;52.242;20.940;2024-02-26T03:06:50;6.00;99.90
33594;DHT22;19920;52.242;20.940;2024-02-26T03:09:16;6.00;99.90
33594;DHT22;19920;52.242;20.940;2024-02-26T03:11:41;6.00;99.90
33594;DHT22;19920;52.242;20.940;2024-02-26T03:14:07;6.00;99.90
33594;DHT22;19920;52.242;20.940;2024-02-26T03:16:33;6.00;99.90
33594;DHT22;19920;52.242;20.940;2024-02-26T03:18:59;6.10;99.90
33594;DHT22;19920;52.242;20.940;2024-02-26T03:21:25;6.10;99.90
33594;DHT22;19920;52.242;20.940;2024-02-26T03:23:51;6.10;99.90
33594;DHT22;19920;52.242;20.940;2024-02-26T03:26:17;6.10;99.90
33594;DHT22;19920;52.242;20.940;2024-02-26T03:28:43;6.00;99.90
33594;DHT22;19920;52.242;20.940;2024-02-26T03:31:08;6.00;99.90
33594;DHT22;19920;52.242;20.940;2024-02-26T03:33:34;6.00;99.90
33594;DHT22;19920;52.242;20.940;2024-02-26T03:36:00;6.00;99.90
33594;DHT22;19920;52.242;20.940;2024-02-26T03:38:25;6.10;99.90
33594;DHT22;19920;52.242;20.940;2024-02-26T03:40:51;6.00;99.90
33594;DHT22;19920;52.242;20.940;2024-02-26T03:43:17;6.10;99.90
33594;DHT22;19920;52.242;20.940;2024-02-26T03:45:43;6.00;99.90
33594;DHT22;19920;52.242;20.940;2024-02-26T03:48:08;6.00;99.90
33594;DHT22;19920;52.242;20.940;2024-02-26T03:50:34;6.00;99.90
33594;DHT22;19920;52.242;20.940;2024-02-26T03:53:00;6.00;99.90
33594;DHT22;19920;52.242;20.940;2024-02-26T03:55:25;6.00;99.90
33594;DHT22;19920;52.242;20.940;2024-02-26T03:57:54;6.00;99.90
33594;DHT22;19920;52.242;20.940;2024-02-26T04:00:20;6.00;99.90
33594;DHT22;19920;52.242;20.940;2024-02-26T04:02:47;6.10;99.90
33594;DHT22;19920;52.242;20.940;2024-02-26T04:05:13;6.00;99.90
33594;DHT22;19920;52.242;20.940;2024-02-26T04:07:39;6.00;99.90
33594;DHT22;19920;52.242;20.940;2024-02-26T04:10:12;5.90;99.90
33594;DHT22;19920;52.242;20.940;2024-02-26T04:12:39;5.90;99.90
33594;DHT22;19920;52.242;20.940;2024-02-26T04:15:07;5.90;99.90
33594;DHT22;19920;52.242;20.940;2024-02-26T04:17:33;5.90;99.90
33594;DHT22;19920;52.242;20.940;2024-02-26T04:19:58;5.90;99.90
33594;DHT22;19920;52.242;20.940;2024-02-26T04:22:24;5.90;99.90
33594;DHT22;19920;52.242;20.940;2024-02-26T04:24:49;5.90;99.90
33594;DHT22;19920;52.242;20.940;2024-02-26T04:27:15;5.90;99.90
33594;DHT22;19920;52.242;20.940;2024-02-26T04:29:40;5.90;99.90
33594;DHT22;19920;52.242;20.940;2024-02-26T04:32:06;5.90;99.90
33594;DHT22;19920;52.242;20.940;2024-02-26T04:34:32;5.90;99.90
33594;DHT22;19920;52.242;20.940;2024-02-26T04:36:57;5.90;99.90
33594;DHT22;19920;52.242;20.940;2024-02-26T04:39:23;6.00;99.90
33594;DHT22;19920;52.242;20.940;2024-02-26T04:41:49;5.90;99.90
33594;DHT22;19920;52.242;20.940;2024-02-26T04:44:14;5.90;99.90
33594;DHT22;19920;52.242;20.940;2024-02-26T04:46:40;5.80;99.90
33594;DHT22;19920;52.242;20.940;2024-02-26T04:49:06;5.80;99.90
33594;DHT22;19920;52.242;20.940;2024-02-26T04:51:31;5.80;99.90
33594;DHT22;19920;52.242;20.940;2024-02-26T04:53:57;5.80;99.90
33594;DHT22;19920;52.242;20.940;2024-02-26T04:56:22;5.70;99.90
33594;DHT22;19920;52.242;20.940;2024-02-26T04:58:48;5.70;99.90
33594;DHT22;19920;52.242;20.940;2024-02-26T05:01:15;5.70;99.90
33594;DHT22;19920;52.242;20.940;2024-02-26T05:03:42;5.60;99.90
33594;DHT22;19920;52.242;20.940;2024-02-26T05:06:08;5.60;99.90
33594;DHT22;19920;52.242;20.940;2024-02-26T05:08:34;5.60;99.90
33594;DHT22;19920;52.242;20.940;2024-02-26T05:11:01;5.60;99.90
33594;DHT22;19920;52.242;20.940;2024-02-26T05:13:28;5.60;99.90
33594;DHT22;19920;52.242;20.940;2024-02-26T05:15:54;5.60;99.90
33594;DHT22;19920;52.242;20.940;2024-02-26T05:18:19;5.60;99.90
33594;DHT22;19920;52.242;20.940;2024-02-26T05:20:45;5.70;99.90
33594;DHT22;19920;52.242;20.940;2024-02-26T05:23:11;5.70;99.90
33594;DHT22;19920;52.242;20.940;2024-02-26T05:25:36;5.80;99.90
33594;DHT22;19920;52.242;20.940;2024-02-26T05:28:02;5.90;99.90
33594;DHT22;19920;52.242;20.940;2024-02-26T05:30:28;6.00;99.90
33594;DHT22;19920;52.242;20.940;2024-02-26T05:32:54;6.10;99.90
33594;DHT22;19920;52.242;20.940;2024-02-26T05:35:20;6.20;99.90
33594;DHT22;19920;52.242;20.940;2024-02-26T05:37:45;6.30;99.90
33594;DHT22;19920;52.242;20.940;2024-02-26T05:40:11;6.40;99.90
33594;DHT22;19920;52.242;20.940;2024-02-26T05:42:37;6.50;99.90
33594;DHT22;19920;52.242;20.940;2024-02-26T05:45:03;6.50;99.90
33594;DHT22;19920;52.242;20.940;2024-02-26T05:47:33;6.60;99.90
33594;DHT22;19920;52.242;20.940;2024-02-26T05:49:58;6.60;99.90
33594;DHT22;19920;52.242;20.940;2024-02-26T05:52:26;6.70;99.90
33594;DHT22;19920;52.242;20.940;2024-02-26T05:54:52;6.80;99.90
33594;DHT22;19920;52.242;20.940;2024-02-26T05:57:18;6.80;99.90
33594;DHT22;19920;52.242;20.940;2024-02-26T05:59:45;6.80;99.90
33594;DHT22;19920;52.242;20.940;2024-02-26T06:02:10;6.80;99.90
33594;DHT22;19920;52.242;20.940;2024-02-26T06:04:36;6.90;99.90
33594;DHT22;19920;52.242;20.940;2024-02-26T06:07:02;7.00;99.90
33594;DHT22;19920;52.242;20.940;2024-02-26T06:09:28;7.00;99.90
33594;DHT22;19920;52.242;20.940;2024-02-26T06:11:53;7.10;99.90
33594;DHT22;19920;52.242;20.940;2024-02-26T06:14:19;7.10;99.90
33594;DHT22;19920;52.242;20.940;2024-02-26T06:16:46;7.20;99.90
33594;DHT22;19920;52.242;20.940;2024-02-26T06:19:12;7.20;99.90
33594;DHT22;19920;52.242;20.940;2024-02-26T06:21:37;7.30;99.90
33594;DHT22;19920;52.242;20.940;2024-02-26T06:24:03;7.40;99.90
33594;DHT22;19920;52.242;20.940;2024-02-26T06:26:29;7.60;99.90
33594;DHT22;19920;52.242;20.940;2024-02-26T06:28:55;7.50;99.90
33594;DHT22;19920;52.242;20.940;2024-02-26T06:31:24;7.50;99.90
33594;DHT22;19920;52.242;20.940;2024-02-26T06:33:49;7.60;99.90
33594;DHT22;19920;52.242;20.940;2024-02-26T06:36:18;7.60;99.90
33594;DHT22;19920;52.242;20.940;2024-02-26T06:38:43;7.70;99.90
33594;DHT22;19920;52.242;20.940;2024-02-26T06:41:09;7.80;99.90
33594;DHT22;19920;52.242;20.940;2024-02-26T06:43:35;7.90;99.90
33594;DHT22;19920;52.242;20.940;2024-02-26T06:46:00;8.00;99.90
33594;DHT22;19920;52.242;20.940;2024-02-26T06:48:26;8.00;99.90
33594;DHT22;19920;52.242;20.940;2024-02-26T06:50:51;8.10;99.90
33594;DHT22;19920;52.242;20.940;2024-02-26T06:53:17;8.20;99.90
33594;DHT22;19920;52.242;20.940;2024-02-26T06:55:43;8.30;99.90
33594;DHT22;19920;52.242;20.940;2024-02-26T06:58:09;8.40;99.90
33594;DHT22;19920;52.242;20.940;2024-02-26T07:00:35;8.40;99.90
33594;DHT22;19920;52.242;20.940;2024-02-26T07:03:00;8.50;99.90
33594;DHT22;19920;52.242;20.940;2024-02-26T07:05:27;8.50;99.90
33594;DHT22;19920;52.242;20.940;2024-02-26T07:07:53;8.60;99.90
33594;DHT22;19920;52.242;20.940;2024-02-26T07:10:18;8.50;99.90
33594;DHT22;19920;52.242;20.940;2024-02-26T07:12:44;8.50;99.90
33594;DHT22;19920;52.242;20.940;2024-02-26T07:15:10;8.60;99.90
33594;DHT22;19920;52.242;20.940;2024-02-26T07:17:36;8.60;99.90
33594;DHT22;19920;52.242;20.940;2024-02-26T07:20:02;8.80;99.90
33594;DHT22;19920;52.242;20.940;2024-02-26T07:22:30;8.70;99.90
33594;DHT22;19920;52.242;20.940;2024-02-26T07:24:56;8.80;99.90
33594;DHT22;19920;52.242;20.940;2024-02-26T07:27:22;8.90;99.90
33594;DHT22;19920;52.242;20.940;2024-02-26T07:29:47;9.00;99.90
33594;DHT22;19920;52.242;20.940;2024-02-26T07:32:13;9.10;99.90
33594;DHT22;19920;52.242;20.940;2024-02-26T07:34:39;9.20;99.90
33594;DHT22;19920;52.242;20.940;2024-02-26T07:37:07;9.30;99.90
33594;DHT22;19920;52.242;20.940;2024-02-26T07:39:33;9.30;99.90
33594;DHT22;19920;52.242;20.940;2024-02-26T07:41:59;9.50;99.90
33594;DHT22;19920;52.242;20.940;2024-02-26T07:44:25;9.60;99.90
33594;DHT22;19920;52.242;20.940;2024-02-26T07:46:50;9.60;99.90
33594;DHT22;19920;52.242;20.940;2024-02-26T07:49:16;9.60;99.90
33594;DHT22;19920;52.242;20.940;2024-02-26T07:51:42;9.60;99.90
33594;DHT22;19920;52.242;20.940;2024-02-26T07:54:07;9.70;99.90
33594;DHT22;19920;52.242;20.940;2024-02-26T07:56:33;9.80;99.90
33594;DHT22;19920;52.242;20.940;2024-02-26T07:58:59;9.90;99.90
33594;DHT22;19920;52.242;20.940;2024-02-26T08:01:24;10.20;99.90
33594;DHT22;19920;52.242;20.940;2024-02-26T08:03:55;10.50;99.90
33594;DHT22;19920;52.242;20.940;2024-02-26T08:06:25;10.70;99.90
33594;DHT22;19920;52.242;20.940;2024-02-26T08:08:50;10.90;99.90
33594;DHT22;19920;52.242;20.940;2024-02-26T08:11:16;11.00;99.90
33594;DHT22;19920;52.242;20.940;2024-02-26T08:13:42;11.10;99.90
33594;DHT22;19920;52.242;20.940;2024-02-26T08:16:07;11.10;99.90
33594;DHT22;19920;52.242;20.940;2024-02-26T08:18:33;11.10;99.90
33594;DHT22;19920;52.242;20.940;2024-02-26T08:20:59;11.10;99.90
33594;DHT22;19920;52.242;20.940;2024-02-26T08:23:24;11.10;99.90
33594;DHT22;19920;52.242;20.940;2024-02-26T08:25:51;11.00;99.90
33594;DHT22;19920;52.242;20.940;2024-02-26T08:28:17;11.00;99.90
33594;DHT22;19920;52.242;20.940;2024-02-26T08:30:43;11.00;99.90
33594;DHT22;19920;52.242;20.940;2024-02-26T08:33:10;10.90;99.90
33594;DHT22;19920;52.242;20.940;2024-02-26T08:35:36;11.00;99.90
33594;DHT22;19920;52.242;20.940;2024-02-26T08:38:02;10.90;99.90
33594;DHT22;19920;52.242;20.940;2024-02-26T08:40:29;10.90;99.90
33594;DHT22;19920;52.242;20.940;2024-02-26T08:42:55;11.00;99.90
33594;DHT22;19920;52.242;20.940;2024-02-26T08:45:21;11.00;99.90
33594;DHT22;19920;52.242;20.940;2024-02-26T08:47:46;10.90;99.90
33594;DHT22;19920;52.242;20.940;2024-02-26T08:50:13;10.90;99.90
33594;DHT22;19920;52.242;20.940;2024-02-26T08:52:39;10.90;99.90
33594;DHT22;19920;52.242;20.940;2024-02-26T08:55:06;11.00;99.90
33594;DHT22;19920;52.242;20.940;2024-02-26T08:57:34;11.00;99.90
33594;DHT22;19920;52.242;20.940;2024-02-26T09:00:00;11.10;99.90
33594;DHT22;19920;52.242;20.940;2024-02-26T09:02:26;11.00;99.90
33594;DHT22;19920;52.242;20.940;2024-02-26T09:04:52;11.00;99.90
33594;DHT22;19920;52.242;20.940;2024-02-26T09:07:20;11.10;99.90
33594;DHT22;19920;52.242;20.940;2024-02-26T09:09:46;11.10;99.90
33594;DHT22;19920;52.242;20.940;2024-02-26T09:12:12;11.20;99.90
33594;DHT22;19920;52.242;20.940;2024-02-26T09:14:38;11.30;99.90
33594;DHT22;19920;52.242;20.940;2024-02-26T09:17:03;11.30;99.90
33594;DHT22;19920;52.242;20.940;2024-02-26T09:19:31;11.30;99.90
33594;DHT22;19920;52.242;20.940;2024-02-26T09:21:56;11.40;99.90
33594;DHT22;19920;52.242;20.940;2024-02-26T09:24:24;11.50;99.90
33594;DHT22;19920;52.242;20.940;2024-02-26T09:26:49;11.50;99.90
33594;DHT22;19920;52.242;20.940;2024-02-26T09:29:15;11.60;99.90
33594;DHT22;19920;52.242;20.940;2024-02-26T09:31:41;11.70;99.90
33594;DHT22;19920;52.242;20.940;2024-02-26T09:34:07;11.70;99.90
33594;DHT22;19920;52.242;20.940;2024-02-26T09:36:33;11.80;99.90
33594;DHT22;19920;52.242;20.940;2024-02-26T09:38:59;11.80;99.90
33594;DHT22;19920;52.242;20.940;2024-02-26T09:41:28;12.00;99.90
33594;DHT22;19920;52.242;20.940;2024-02-26T09:43:56;12.00;99.90
33594;DHT22;19920;52.242;20.940;2024-02-26T09:46:23;11.90;99.90
33594;DHT22;19920;52.242;20.940;2024-02-26T09:48:49;11.80;99.90
33594;DHT22;19920;52.242;20.940;2024-02-26T09:51:16;11.90;99.90
33594;DHT22;19920;52.242;20.940;2024-02-26T09:53:44;12.00;99.90
33594;DHT22;19920;52.242;20.940;2024-02-26T09:56:11;12.00;99.90
33594;DHT22;19920;52.242;20.940;2024-02-26T09:58:39;12.10;99.90
33594;DHT22;19920;52.242;20.940;2024-02-26T10:01:11;12.00;99.90
33594;DHT22;19920;52.242;20.940;2024-02-26T10:03:40;12.10;99.90
33594;DHT22;19920;52.242;20.940;2024-02-26T10:06:09;12.10;99.90
33594;DHT22;19920;52.242;20.940;2024-02-26T10:08:36;12.20;99.90
33594;DHT22;19920;52.242;20.940;2024-02-26T10:11:04;12.40;99.90
33594;DHT22;19920;52.242;20.940;2024-02-26T10:13:30;12.50;99.90
33594;DHT22;19920;52.242;20.940;2024-02-26T10:15:55;12.70;99.90
33594;DHT22;19920;52.242;20.940;2024-02-26T10:18:23;12.80;99.90
33594;DHT22;19920;52.242;20.940;2024-02-26T10:21:02;12.90;99.90
33594;DHT22;19920;52.242;20.940;2024-02-26T10:23:27;13.10;99.90
33594;DHT22;19920;52.242;20.940;2024-02-26T10:25:56;13.20;99.90
33594;DHT22;19920;52.242;20.940;2024-02-26T10:28:22;13.30;99.90
33594;DHT22;19920;52.242;20.940;2024-02-26T10:30:48;13.40;99.90
33594;DHT22;19920;52.242;20.940;2024-02-26T10:33:14;13.40;99.90
33594;DHT22;19920;52.242;20.940;2024-02-26T10:35:45;13.40;99.90
33594;DHT22;19920;52.242;20.940;2024-02-26T10:38:12;13.40;99.90
33594;DHT22;19920;52.242;20.940;2024-02-26T10:40:37;13.40;99.90
33594;DHT22;19920;52.242;20.940;2024-02-26T10:43:03;13.40;99.90
33594;DHT22;19920;52.242;20.940;2024-02-26T10:45:29;13.40;99.90
33594;DHT22;19920;52.242;20.940;2024-02-26T10:47:54;13.40;99.90
33594;DHT22;19920;52.242;20.940;2024-02-26T10:50:20;13.40;99.90
33594;DHT22;19920;52.242;20.940;2024-02-26T10:52:46;13.30;99.90
33594;DHT22;19920;52.242;20.940;2024-02-26T10:55:16;13.40;99.90
33594;DHT22;19920;52.242;20.940;2024-02-26T10:57:45;13.40;99.90
33594;DHT22;19920;52.242;20.940;2024-02-26T11:00:14;13.60;99.90
33594;DHT22;19920;52.242;20.940;2024-02-26T11:02:41;13.60;99.90
33594;DHT22;19920;52.242;20.940;2024-02-26T11:05:07;13.60;99.90
33594;DHT22;19920;52.242;20.940;2024-02-26T11:07:36;13.50;99.90
33594;DHT22;19920;52.242;20.940;2024-02-26T11:10:03;13.50;99.90
33594;DHT22;19920;52.242;20.940;2024-02-26T11:12:32;13.50;99.90
33594;DHT22;19920;52.242;20.940;2024-02-26T11:14:58;13.40;99.90
33594;DHT22;19920;52.242;20.940;2024-02-26T11:17:28;13.50;99.90
33594;DHT22;19920;52.242;20.940;2024-02-26T11:19:59;13.60;99.90
33594;DHT22;19920;52.242;20.940;2024-02-26T11:22:28;13.60;99.90
33594;DHT22;19920;52.242;20.940;2024-02-26T11:24:55;13.40;99.90
33594;DHT22;19920;52.242;20.940;2024-02-26T11:27:33;13.50;99.90
33594;DHT22;19920;52.242;20.940;2024-02-26T11:30:01;13.40;99.90
33594;DHT22;19920;52.242;20.940;2024-02-26T11:32:28;13.30;99.90
33594;DHT22;19920;52.242;20.940;2024-02-26T11:34:56;13.50;99.90
33594;DHT22;19920;52.242;20.940;2024-02-26T11:37:23;13.90;99.90
33594;DHT22;19920;52.242;20.940;2024-02-26T11:39:51;13.90;99.90
33594;DHT22;19920;52.242;20.940;2024-02-26T11:42:17;14.00;99.90
33594;DHT22;19920;52.242;20.940;2024-02-26T11:44:43;14.10;99.90
33594;DHT22;19920;52.242;20.940;2024-02-26T11:47:13;14.00;99.90
33594;DHT22;19920;52.242;20.940;2024-02-26T11:49:40;14.00;99.90
33594;DHT22;19920;52.242;20.940;2024-02-26T11:52:08;14.00;99.90
33594;DHT22;19920;52.242;20.940;2024-02-26T12:02:47;14.20;99.90
33594;DHT22;19920;52.242;20.940;2024-02-26T12:05:18;14.20;99.90
33594;DHT22;19920;52.242;20.940;2024-02-26T12:08:14;14.20;99.90
33594;DHT22;19920;52.242;20.940;2024-02-26T12:10:42;14.20;99.90
33594;DHT22;19920;52.242;20.940;2024-02-26T12:13:16;14.30;99.90
33594;DHT22;19920;52.242;20.940;2024-02-26T12:15:54;14.30;99.90
33594;DHT22;19920;52.242;20.940;2024-02-26T12:18:21;14.40;99.90
33594;DHT22;19920;52.242;20.940;2024-02-26T12:20:58;14.50;99.90
33594;DHT22;19920;52.242;20.940;2024-02-26T12:23:24;14.40;99.90
33594;DHT22;19920;52.242;20.940;2024-02-26T12:25:50;14.50;99.90
33594;DHT22;19920;52.242;20.940;2024-02-26T12:28:16;14.70;99.90
33594;DHT22;19920;52.242;20.940;2024-02-26T12:30:41;14.90;99.90
33594;DHT22;19920;52.242;20.940;2024-02-26T12:33:07;14.90;99.90
33594;DHT22;19920;52.242;20.940;2024-02-26T12:35:35;15.00;99.90
33594;DHT22;19920;52.242;20.940;2024-02-26T12:38:01;15.10;99.90
33594;DHT22;19920;52.242;20.940;2024-02-26T12:40:29;15.10;99.90
33594;DHT22;19920;52.242;20.940;2024-02-26T12:42:55;15.20;99.90
33594;DHT22;19920;52.242;20.940;2024-02-26T12:45:21;15.10;99.90
33594;DHT22;19920;52.242;20.940;2024-02-26T12:47:46;15.20;99.90
33594;DHT22;19920;52.242;20.940;2024-02-26T12:50:13;15.20;99.90
33594;DHT22;19920;52.242;20.940;2024-02-26T12:52:48;15.30;99.90
33594;DHT22;19920;52.242;20.940;2024-02-26T12:55:19;15.50;99.90
33594;DHT22;19920;52.242;20.940;2024-02-26T12:57:46;15.60;99.90
33594;DHT22;19920;52.242;20.940;2024-02-26T13:00:17;15.80;99.90
33594;DHT22;19920;52.242;20.940;2024-02-26T13:02:44;16.00;99.90
33594;DHT22;19920;52.242;20.940;2024-02-26T13:05:13;16.10;99.90
33594;DHT22;19920;52.242;20.940;2024-02-26T13:07:42;16.10;99.90
33594;DHT22;19920;52.242;20.940;2024-02-26T13:10:09;16.10;99.90
33594;DHT22;19920;52.242;20.940;2024-02-26T13:12:47;16.20;99.90
33594;DHT22;19920;52.242;20.940;2024-02-26T13:15:18;16.10;99.90
33594;DHT22;19920;52.242;20.940;2024-02-26T13:17:45;16.00;99.90
33594;DHT22;19920;52.242;20.940;2024-02-26T13:20:11;16.20;99.90
33594;DHT22;19920;52.242;20.940;2024-02-26T13:22:37;16.30;99.90
33594;DHT22;19920;52.242;20.940;2024-02-26T13:25:03;16.40;99.90
33594;DHT22;19920;52.242;20.940;2024-02-26T13:27:29;16.60;99.90
33594;DHT22;19920;52.242;20.940;2024-02-26T13:32:40;16.50;99.90
33594;DHT22;19920;52.242;20.940;2024-02-26T13:35:11;16.70;99.90
33594;DHT22;19920;52.242;20.940;2024-02-26T13:37:38;16.80;99.90
33594;DHT22;19920;52.242;20.940;2024-02-26T13:40:08;16.90;99.90
33594;DHT22;19920;52.242;20.940;2024-02-26T13:42:35;17.00;99.90
33594;DHT22;19920;52.242;20.940;2024-02-26T13:45:00;16.80;99.90
33594;DHT22;19920;52.242;20.940;2024-02-26T13:47:26;16.70;99.90
33594;DHT22;19920;52.242;20.940;2024-02-26T13:49:52;16.70;99.90
33594;DHT22;19920;52.242;20.940;2024-02-26T13:52:18;16.70;99.90
33594;DHT22;19920;52.242;20.940;2024-02-26T13:54:45;16.70;99.90
33594;DHT22;19920;52.242;20.940;2024-02-26T13:57:11;16.80;99.90
33594;DHT22;19920;52.242;20.940;2024-02-26T13:59:37;17.20;99.90
33594;DHT22;19920;52.242;20.940;2024-02-26T14:02:07;17.60;99.90
33594;DHT22;19920;52.242;20.940;2024-02-26T14:04:32;17.90;99.90
33594;DHT22;19920;52.242;20.940;2024-02-26T14:06:58;18.00;99.90
33594;DHT22;19920;52.242;20.940;2024-02-26T14:09:23;17.90;99.90
33594;DHT22;19920;52.242;20.940;2024-02-26T14:11:49;17.90;99.90
33594;DHT22;19920;52.242;20.940;2024-02-26T14:14:15;17.70;99.90
33594;DHT22;19920;52.242;20.940;2024-02-26T14:16:40;17.40;99.90
33594;DHT22;19920;52.242;20.940;2024-02-26T14:19:06;17.20;99.90
33594;DHT22;19920;52.242;20.940;2024-02-26T14:21:32;17.00;99.90
33594;DHT22;19920;52.242;20.940;2024-02-26T14:23:57;16.90;99.90
33594;DHT22;19920;52.242;20.940;2024-02-26T14:26:23;16.80;99.90
33594;DHT22;19920;52.242;20.940;2024-02-26T14:28:49;16.80;99.90
33594;DHT22;19920;52.242;20.940;2024-02-26T14:31:17;16.90;99.90
33594;DHT22;19920;52.242;20.940;2024-02-26T14:33:43;16.90;99.90
33594;DHT22;19920;52.242;20.940;2024-02-26T14:36:09;16.90;99.90
33594;DHT22;19920;52.242;20.940;2024-02-26T14:38:35;16.70;99.90
33594;DHT22;19920;52.242;20.940;2024-02-26T14:41:02;16.50;99.90
33594;DHT22;19920;52.242;20.940;2024-02-26T14:43:28;16.30;99.90
33594;DHT22;19920;52.242;20.940;2024-02-26T14:45:54;16.20;99.90
33594;DHT22;19920;52.242;20.940;2024-02-26T14:48:19;16.00;99.90
33594;DHT22;19920;52.242;20.940;2024-02-26T14:50:45;15.70;99.90
33594;DHT22;19920;52.242;20.940;2024-02-26T14:53:11;15.60;99.90
33594;DHT22;19920;52.242;20.940;2024-02-26T14:55:36;15.40;99.90
33594;DHT22;19920;52.242;20.940;2024-02-26T14:58:02;15.30;99.90
33594;DHT22;19920;52.242;20.940;2024-02-26T15:00:27;15.20;99.90
33594;DHT22;19920;52.242;20.940;2024-02-26T15:02:53;15.00;99.90
33594;DHT22;19920;52.242;20.940;2024-02-26T15:05:20;15.00;99.90
33594;DHT22;19920;52.242;20.940;2024-02-26T15:07:46;14.90;99.90
33594;DHT22;19920;52.242;20.940;2024-02-26T15:10:11;14.80;99.90
33594;DHT22;19920;52.242;20.940;2024-02-26T15:12:37;14.60;99.90
33594;DHT22;19920;52.242;20.940;2024-02-26T15:15:04;14.60;99.90
33594;DHT22;19920;52.242;20.940;2024-02-26T15:17:29;14.40;99.90
33594;DHT22;19920;52.242;20.940;2024-02-26T15:19:57;14.30;99.90
33594;DHT22;19920;52.242;20.940;2024-02-26T15:22:24;14.30;99.90
33594;DHT22;19920;52.242;20.940;2024-02-26T15:24:50;14.20;99.90
33594;DHT22;19920;52.242;20.940;2024-02-26T15:27:15;14.20;99.90
33594;DHT22;19920;52.242;20.940;2024-02-26T15:29:42;14.00;99.90